Time;durP1;ratioP1;P1;durP2;ratioP2;P2;SDS_P1;SDS_P2;PMS_P1;PMS_P2;Temp;Humidity;BMP_temperature;BMP_pressure;BME280_temperature;BME280_humidity;BME280_pressure;Samples;Min_cycle;Max_cycle;Signal;HPM_P1;HPM_P2
2022/03/13 00:01:38;;;;;;;2.92;2.58;;;;;;;;;;5001025;28;20258;-83
2022/03/13 00:04:04;;;;;;;2.50;2.03;;;;;;;;;;5018345;28;20215;-82
2022/03/13 00:06:34;;;;;;;1.98;1.75;;;;;;;;;;5017736;28;20473;-82
2022/03/13 00:09:02;;;;;;;2.55;2.10;;;;;;;;;;5000040;28;20197;-82
2022/03/13 00:11:30;;;;;;;2.72;2.15;;;;;;;;;;5011754;28;20183;-82
2022/03/13 00:13:57;;;;;;;3.13;2.28;;;;;;;;;;4999003;28;20210;-82
2022/03/13 00:16:24;;;;;;;2.75;2.20;;;;;;;;;;5001549;28;20179;-81
2022/03/13 00:18:52;;;;;;;5.65;2.40;;;;;;;;;;5019176;28;20198;-82
2022/03/13 00:21:19;;;;;;;2.33;1.92;;;;;;;;;;5014273;28;20194;-81
2022/03/13 00:23:46;;;;;;;2.60;1.95;;;;;;;;;;5014605;28;20183;-81
2022/03/13 00:26:13;;;;;;;2.00;1.90;;;;;;;;;;5002827;28;20218;-82
2022/03/13 00:28:39;;;;;;;2.80;2.00;;;;;;;;;;5003391;28;20186;-82
2022/03/13 00:31:06;;;;;;;3.25;2.45;;;;;;;;;;5019383;28;20183;-82
2022/03/13 00:33:32;;;;;;;2.03;1.88;;;;;;;;;;4991522;28;20263;-82
2022/03/13 00:35:58;;;;;;;3.15;2.10;;;;;;;;;;4996632;28;20195;-82
2022/03/13 00:38:25;;;;;;;2.50;2.20;;;;;;;;;;5017332;28;20183;-82
2022/03/13 00:40:52;;;;;;;2.30;2.10;;;;;;;;;;4986843;28;20519;-82
2022/03/13 00:43:22;;;;;;;2.65;2.28;;;;;;;;;;5002709;28;20603;-81
2022/03/13 00:45:48;;;;;;;2.38;2.17;;;;;;;;;;5018188;28;20206;-82
2022/03/13 00:48:14;;;;;;;2.30;2.05;;;;;;;;;;4995138;28;20247;-82
2022/03/13 00:50:40;;;;;;;2.22;2.03;;;;;;;;;;4995627;28;20183;-82
2022/03/13 00:53:06;;;;;;;2.30;1.90;;;;;;;;;;5001169;28;20171;-82
2022/03/13 00:55:33;;;;;;;2.53;1.80;;;;;;;;;;4986233;28;20188;-82
2022/03/13 00:57:59;;;;;;;3.85;1.75;;;;;;;;;;5004568;28;20265;-83
2022/03/13 01:00:25;;;;;;;2.65;2.28;;;;;;;;;;5014186;28;20191;-82
2022/03/13 01:02:51;;;;;;;2.72;2.40;;;;;;;;;;4997844;28;20214;-82
2022/03/13 01:05:22;;;;;;;2.78;2.22;;;;;;;;;;4990158;28;20195;-82
2022/03/13 01:07:48;;;;;;;2.53;2.33;;;;;;;;;;5001617;28;20278;-83
2022/03/13 01:10:14;;;;;;;2.78;2.20;;;;;;;;;;5004050;28;20186;-82
2022/03/13 01:12:40;;;;;;;1.92;1.73;;;;;;;;;;5002851;28;20500;-83
2022/03/13 01:15:08;;;;;;;1.80;1.70;;;;;;;;;;5013732;28;20197;-83
2022/03/13 01:17:34;;;;;;;2.42;1.60;;;;;;;;;;5001516;28;20193;-82
2022/03/13 01:20:02;;;;;;;1.83;1.73;;;;;;;;;;5001591;28;20187;-83
2022/03/13 01:22:28;;;;;;;1.83;1.67;;;;;;;;;;5018327;28;20246;-83
2022/03/13 01:24:54;;;;;;;2.00;1.83;;;;;;;;;;5004116;28;20206;-83
2022/03/13 01:27:21;;;;;;;1.83;1.63;;;;;;;;;;5003229;28;20183;-82
2022/03/13 01:29:47;;;;;;;2.85;1.80;;;;;;;;;;5013644;28;20175;-82
2022/03/13 01:32:14;;;;;;;1.65;1.55;;;;;;;;;;5005428;28;20531;-82
2022/03/13 01:34:42;;;;;;;2.80;2.08;;;;;;;;;;5017144;28;20522;-82
2022/03/13 01:37:15;;;;;;;2.75;1.80;;;;;;;;;;5015221;28;20182;-82
2022/03/13 01:39:42;;;;;;;2.10;1.80;;;;;;;;;;4990540;28;20274;-82
2022/03/13 01:42:09;;;;;;;2.00;1.80;;;;;;;;;;4997493;28;20187;-83
2022/03/13 01:44:35;;;;;;;2.35;1.60;;;;;;;;;;4999034;28;20183;-82
2022/03/13 01:47:01;;;;;;;2.20;2.00;;;;;;;;;;4987915;28;20184;-82
2022/03/13 01:49:27;;;;;;;2.75;1.80;;;;;;;;;;5001359;28;20371;-82
2022/03/13 01:51:53;;;;;;;1.70;1.60;;;;;;;;;;5018985;28;20203;-82
2022/03/13 01:54:19;;;;;;;2.17;1.35;;;;;;;;;;4993382;28;20187;-82
2022/03/13 01:56:46;;;;;;;2.35;2.15;;;;;;;;;;4992986;28;20211;-82
2022/03/13 01:59:14;;;;;;;1.98;1.80;;;;;;;;;;5003211;28;20235;-82
2022/03/13 02:01:40;;;;;;;1.80;1.55;;;;;;;;;;5017782;28;20186;-82
2022/03/13 02:04:06;;;;;;;2.10;1.90;;;;;;;;;;5018587;28;20183;-82
2022/03/13 02:06:33;;;;;;;2.38;2.10;;;;;;;;;;5002374;28;20451;-82
2022/03/13 02:08:59;;;;;;;2.28;2.08;;;;;;;;;;5017100;28;20198;-82
2022/03/13 02:11:36;;;;;;;2.13;2.00;;;;;;;;;;5021683;28;20183;-82
2022/03/13 02:14:05;;;;;;;5.70;2.20;;;;;;;;;;5021753;28;20194;-82
2022/03/13 02:16:31;;;;;;;2.28;2.05;;;;;;;;;;5005292;28;20238;-83
2022/03/13 02:18:57;;;;;;;3.33;2.20;;;;;;;;;;5018585;28;20183;-82
2022/03/13 02:21:25;;;;;;;2.10;1.90;;;;;;;;;;4997098;28;20470;-82
2022/03/13 02:23:51;;;;;;;2.10;2.00;;;;;;;;;;5006637;28;20187;-82
2022/03/13 02:26:20;;;;;;;2.78;2.55;;;;;;;;;;5005497;28;20207;-82
2022/03/13 02:28:51;;;;;;;2.42;2.25;;;;;;;;;;5005886;28;20257;-82
2022/03/13 02:31:18;;;;;;;2.40;2.20;;;;;;;;;;5022010;28;20179;-83
2022/03/13 02:33:44;;;;;;;3.10;2.20;;;;;;;;;;5006613;28;20186;-81
2022/03/13 02:36:43;;;;;;;3.40;2.30;;;;;;;;;;5009688;28;20253;-82
2022/03/13 02:39:09;;;;;;;2.70;2.30;;;;;;;;;;4960083;29;20220;-83
2022/03/13 02:41:37;;;;;;;2.75;2.13;;;;;;;;;;4964809;28;20319;-82
2022/03/13 02:44:06;;;;;;;3.30;2.97;;;;;;;;;;4964586;29;20592;-82
2022/03/13 02:46:51;;;;;;;2.47;2.15;;;;;;;;;;4961630;29;20263;-82
2022/03/13 02:49:19;;;;;;;2.65;2.40;;;;;;;;;;4963658;28;20713;-82
2022/03/13 02:51:46;;;;;;;2.05;1.95;;;;;;;;;;4965371;29;20176;-82
2022/03/13 02:54:13;;;;;;;2.42;2.22;;;;;;;;;;4963404;28;20192;-82
2022/03/13 02:56:39;;;;;;;2.58;2.35;;;;;;;;;;4947865;29;20183;-82
2022/03/13 02:59:05;;;;;;;2.70;2.25;;;;;;;;;;4963484;29;20204;-82
2022/03/13 03:01:31;;;;;;;2.03;1.90;;;;;;;;;;4947766;29;20196;-82
2022/03/13 03:03:58;;;;;;;2.72;2.40;;;;;;;;;;4964220;28;20196;-82
2022/03/13 03:06:25;;;;;;;6.07;2.58;;;;;;;;;;4957302;29;20251;-82
2022/03/13 03:08:53;;;;;;;2.20;2.00;;;;;;;;;;4963647;29;20227;-83
2022/03/13 03:11:19;;;;;;;2.15;2.05;;;;;;;;;;4963295;28;20184;-82
2022/03/13 03:13:46;;;;;;;2.28;1.63;;;;;;;;;;4967573;28;20252;-82
2022/03/13 03:16:12;;;;;;;2.35;2.15;;;;;;;;;;5020305;28;20203;-82
2022/03/13 03:18:38;;;;;;;2.70;2.10;;;;;;;;;;5018099;28;20194;-82
2022/03/13 03:21:04;;;;;;;2.60;2.40;;;;;;;;;;5004959;28;20199;-83
2022/03/13 03:23:30;;;;;;;2.45;1.95;;;;;;;;;;5003155;28;20179;-83
2022/03/13 03:25:56;;;;;;;2.25;2.05;;;;;;;;;;4990389;28;20260;-83
2022/03/13 03:28:22;;;;;;;3.08;2.40;;;;;;;;;;5020418;28;20222;-82
2022/03/13 03:30:48;;;;;;;3.85;2.58;;;;;;;;;;5005995;28;20593;-81
2022/03/13 03:33:14;;;;;;;2.15;2.00;;;;;;;;;;5011794;28;20191;-83
2022/03/13 03:35:40;;;;;;;2.30;2.10;;;;;;;;;;5004565;28;20688;-83
2022/03/13 03:38:06;;;;;;;5.95;2.70;;;;;;;;;;5003902;28;20648;-83
2022/03/13 03:40:33;;;;;;;2.63;2.42;;;;;;;;;;5020419;28;20231;-83
2022/03/13 03:43:05;;;;;;;2.53;2.20;;;;;;;;;;4993026;28;20191;-82
2022/03/13 03:45:32;;;;;;;2.78;2.20;;;;;;;;;;5003028;28;21112;-82
2022/03/13 03:47:58;;;;;;;2.40;2.20;;;;;;;;;;4997199;28;20187;-82
2022/03/13 03:50:24;;;;;;;2.50;2.08;;;;;;;;;;4994391;28;20228;-82
2022/03/13 03:52:55;;;;;;;2.47;2.25;;;;;;;;;;5005426;28;20179;-83
2022/03/13 03:55:22;;;;;;;2.58;2.38;;;;;;;;;;5004768;28;20171;-82
2022/03/13 03:57:48;;;;;;;2.50;2.10;;;;;;;;;;5000919;28;20206;-82
2022/03/13 04:00:14;;;;;;;3.78;2.50;;;;;;;;;;5004436;28;20198;-82
2022/03/13 04:02:41;;;;;;;2.00;1.70;;;;;;;;;;5019249;28;20230;-82
2022/03/13 04:05:08;;;;;;;2.75;1.95;;;;;;;;;;5015361;28;20298;-82
2022/03/13 04:07:34;;;;;;;3.47;2.65;;;;;;;;;;5002815;28;28359;-81
2022/03/13 04:10:00;;;;;;;3.23;1.70;;;;;;;;;;5017195;28;20175;-82
2022/03/13 04:12:26;;;;;;;2.60;2.10;;;;;;;;;;5018794;28;20514;-82
2022/03/13 04:14:52;;;;;;;3.90;2.60;;;;;;;;;;5014859;28;20230;-82
2022/03/13 04:17:18;;;;;;;2.97;2.13;;;;;;;;;;5002552;28;20434;-82
2022/03/13 04:19:45;;;;;;;2.38;2.13;;;;;;;;;;5017977;28;20222;-82
2022/03/13 04:22:12;;;;;;;3.42;2.40;;;;;;;;;;5005871;28;20239;-83
2022/03/13 04:24:37;;;;;;;3.50;1.92;;;;;;;;;;5010512;28;20190;-82
2022/03/13 04:27:04;;;;;;;2.63;2.42;;;;;;;;;;5015650;28;20196;-82
2022/03/13 04:29:30;;;;;;;2.17;1.80;;;;;;;;;;4992622;28;20644;-82
2022/03/13 04:31:57;;;;;;;2.80;2.17;;;;;;;;;;5015631;28;20198;-82
2022/03/13 04:34:23;;;;;;;2.58;2.38;;;;;;;;;;5018811;28;20181;-82
2022/03/13 04:36:50;;;;;;;2.53;2.30;;;;;;;;;;5019356;28;20175;-82
2022/03/13 04:39:16;;;;;;;2.50;2.15;;;;;;;;;;5002678;28;20233;-82
2022/03/13 04:41:43;;;;;;;2.05;1.85;;;;;;;;;;5003455;28;20186;-82
2022/03/13 04:44:10;;;;;;;2.15;1.90;;;;;;;;;;5003545;28;20194;-82
2022/03/13 04:46:36;;;;;;;2.67;1.90;;;;;;;;;;5001656;28;20215;-82
2022/03/13 04:49:02;;;;;;;2.25;2.03;;;;;;;;;;5019524;28;20179;-82
2022/03/13 04:51:28;;;;;;;2.20;2.10;;;;;;;;;;4993507;28;20530;-82
2022/03/13 04:53:54;;;;;;;1.90;1.80;;;;;;;;;;4995755;28;20202;-82
2022/03/13 04:56:20;;;;;;;2.43;2.07;;;;;;;;;;5001369;28;20437;-82
2022/03/13 04:58:46;;;;;;;2.00;1.80;;;;;;;;;;4987288;28;20470;-83
2022/03/13 05:01:12;;;;;;;2.27;1.90;;;;;;;;;;5004125;28;20186;-82
2022/03/13 05:03:38;;;;;;;1.90;1.70;;;;;;;;;;4999256;28;20474;-82
2022/03/13 05:06:05;;;;;;;2.15;1.95;;;;;;;;;;4995480;28;20207;-82
2022/03/13 05:08:31;;;;;;;2.65;2.05;;;;;;;;;;4992803;28;20180;-82
2022/03/13 05:10:58;;;;;;;1.70;1.60;;;;;;;;;;5016382;28;20461;-82
2022/03/13 05:13:25;;;;;;;2.13;1.90;;;;;;;;;;5003337;28;20167;-83
2022/03/13 05:15:52;;;;;;;2.35;1.95;;;;;;;;;;5002566;28;20171;-82
2022/03/13 05:18:18;;;;;;;1.73;1.63;;;;;;;;;;5012690;28;20201;-82
2022/03/13 05:20:45;;;;;;;2.15;1.60;;;;;;;;;;5013794;28;20217;-82
2022/03/13 05:23:11;;;;;;;2.10;1.90;;;;;;;;;;5003329;28;20189;-82
2022/03/13 05:25:38;;;;;;;2.25;1.90;;;;;;;;;;5018129;28;20214;-83
2022/03/13 05:28:04;;;;;;;1.52;1.42;;;;;;;;;;5004071;28;20258;-83
2022/03/13 05:30:30;;;;;;;2.10;1.90;;;;;;;;;;5013020;28;20229;-82
2022/03/13 05:32:56;;;;;;;1.95;1.70;;;;;;;;;;5018459;28;20191;-82
2022/03/13 05:35:23;;;;;;;1.98;1.85;;;;;;;;;;5018108;28;20183;-82
2022/03/13 05:37:49;;;;;;;2.05;1.80;;;;;;;;;;5006450;28;20248;-83
2022/03/13 05:40:17;;;;;;;1.40;1.27;;;;;;;;;;5003563;28;20215;-82
2022/03/13 05:42:45;;;;;;;1.85;1.75;;;;;;;;;;5007205;28;20171;-83
2022/03/13 05:45:13;;;;;;;2.42;1.45;;;;;;;;;;5017448;28;20215;-82
2022/03/13 05:47:48;;;;;;;1.52;1.30;;;;;;;;;;5004560;28;20194;-83
2022/03/13 05:50:15;;;;;;;1.40;1.30;;;;;;;;;;5005484;28;20554;-82
2022/03/13 05:52:44;;;;;;;2.20;1.58;;;;;;;;;;5005773;28;20187;-83
2022/03/13 05:55:10;;;;;;;1.70;1.60;;;;;;;;;;5019540;28;20207;-82
2022/03/13 05:57:37;;;;;;;2.15;1.50;;;;;;;;;;5006343;28;20357;-82
2022/03/13 06:00:07;;;;;;;1.48;1.38;;;;;;;;;;5005834;28;20802;-82
2022/03/13 06:02:36;;;;;;;1.65;1.50;;;;;;;;;;5008455;28;20191;-82
2022/03/13 06:05:03;;;;;;;1.98;1.83;;;;;;;;;;5020929;28;20266;-82
2022/03/13 06:07:29;;;;;;;2.03;1.20;;;;;;;;;;5021268;28;20179;-83
2022/03/13 06:09:56;;;;;;;1.60;1.40;;;;;;;;;;5022669;28;20244;-83
2022/03/13 06:12:22;;;;;;;2.08;1.65;;;;;;;;;;5016202;28;20442;-82
2022/03/13 06:14:48;;;;;;;1.70;1.50;;;;;;;;;;5016973;28;20198;-82
2022/03/13 06:17:14;;;;;;;1.77;1.58;;;;;;;;;;5005430;28;20187;-83
2022/03/13 06:19:42;;;;;;;1.63;1.37;;;;;;;;;;5005739;28;20198;-83
2022/03/13 06:22:09;;;;;;;2.15;1.42;;;;;;;;;;5006763;28;20446;-82
2022/03/13 06:24:36;;;;;;;1.45;1.35;;;;;;;;;;4993845;28;20211;-83
2022/03/13 06:27:02;;;;;;;1.20;1.10;;;;;;;;;;4999912;28;20655;-82
2022/03/13 06:29:31;;;;;;;1.70;1.55;;;;;;;;;;5019852;28;20193;-82
2022/03/13 06:31:57;;;;;;;1.38;1.23;;;;;;;;;;4991268;28;20422;-83
2022/03/13 06:34:23;;;;;;;1.92;1.55;;;;;;;;;;5005813;28;20176;-82
2022/03/13 06:36:49;;;;;;;1.77;1.33;;;;;;;;;;5018154;28;20226;-82
2022/03/13 06:39:15;;;;;;;1.77;1.67;;;;;;;;;;4994492;28;20253;-82
2022/03/13 06:41:42;;;;;;;1.93;1.17;;;;;;;;;;4995935;28;20223;-83
2022/03/13 06:44:08;;;;;;;1.45;1.33;;;;;;;;;;5005851;28;20519;-83
2022/03/13 06:46:34;;;;;;;1.85;1.27;;;;;;;;;;5019679;28;20222;-83
2022/03/13 06:49:02;;;;;;;1.65;1.35;;;;;;;;;;5021786;28;20178;-83
2022/03/13 06:51:28;;;;;;;2.35;1.25;;;;;;;;;;5016741;28;20198;-83
2022/03/13 06:53:54;;;;;;;1.23;1.00;;;;;;;;;;5015389;28;20182;-83
2022/03/13 06:56:20;;;;;;;1.50;1.40;;;;;;;;;;5019924;28;20189;-83
2022/03/13 06:58:46;;;;;;;1.23;1.13;;;;;;;;;;5005101;28;20179;-83
2022/03/13 07:01:12;;;;;;;1.50;1.40;;;;;;;;;;5021674;28;20213;-83
2022/03/13 07:03:39;;;;;;;1.47;1.20;;;;;;;;;;5005295;28;20828;-83
2022/03/13 07:06:05;;;;;;;1.95;1.30;;;;;;;;;;5016965;28;20469;-82
2022/03/13 07:08:34;;;;;;;1.80;1.30;;;;;;;;;;5018963;28;20191;-83
2022/03/13 07:11:01;;;;;;;1.45;1.35;;;;;;;;;;4992323;28;20195;-83
2022/03/13 07:13:31;;;;;;;0.93;0.93;;;;;;;;;;5005132;28;20709;-85
2022/03/13 07:15:57;;;;;;;1.13;1.02;;;;;;;;;;5020821;28;20255;-83
2022/03/13 07:18:24;;;;;;;1.50;1.30;;;;;;;;;;4995188;28;20191;-84
2022/03/13 07:20:50;;;;;;;1.30;1.15;;;;;;;;;;4998020;28;20183;-83
2022/03/13 07:23:16;;;;;;;1.42;1.33;;;;;;;;;;5016427;28;20218;-83
2022/03/13 07:25:42;;;;;;;1.50;1.40;;;;;;;;;;5018609;28;20207;-83
2022/03/13 07:28:08;;;;;;;1.40;1.00;;;;;;;;;;5018060;28;20186;-84
2022/03/13 07:30:34;;;;;;;1.42;1.33;;;;;;;;;;5019085;28;20187;-84
2022/03/13 07:33:00;;;;;;;1.10;1.00;;;;;;;;;;5002846;28;20198;-83
2022/03/13 07:35:27;;;;;;;1.15;1.05;;;;;;;;;;5019784;28;20187;-81
2022/03/13 07:37:53;;;;;;;1.80;1.10;;;;;;;;;;5004478;28;20188;-82
2022/03/13 07:40:19;;;;;;;2.28;1.50;;;;;;;;;;5018136;28;20281;-81
2022/03/13 07:42:45;;;;;;;1.52;1.42;;;;;;;;;;5019691;28;20183;-82
2022/03/13 07:45:12;;;;;;;1.42;1.10;;;;;;;;;;5002312;28;20211;-81
2022/03/13 07:47:38;;;;;;;1.40;1.10;;;;;;;;;;5000342;28;20247;-81
2022/03/13 07:50:04;;;;;;;1.40;1.30;;;;;;;;;;5033945;28;20219;-82
2022/03/13 07:52:30;;;;;;;1.08;1.00;;;;;;;;;;5018603;28;20629;-81
2022/03/13 07:54:56;;;;;;;1.42;1.33;;;;;;;;;;5016789;28;21110;-82
2022/03/13 07:57:22;;;;;;;1.27;1.17;;;;;;;;;;5015020;28;20195;-81
2022/03/13 07:59:48;;;;;;;2.00;1.30;;;;;;;;;;5001929;28;20456;-82
2022/03/13 08:02:15;;;;;;;1.10;1.00;;;;;;;;;;5000819;28;20188;-81
2022/03/13 08:04:41;;;;;;;1.20;1.10;;;;;;;;;;4993721;28;20241;-82
2022/03/13 08:07:07;;;;;;;1.15;1.00;;;;;;;;;;5003581;28;20606;-83
2022/03/13 08:09:34;;;;;;;1.17;1.08;;;;;;;;;;5000131;28;20175;-82
2022/03/13 08:12:00;;;;;;;1.35;1.15;;;;;;;;;;5000870;28;20225;-82
2022/03/13 08:14:27;;;;;;;1.33;1.00;;;;;;;;;;5003847;28;20233;-82
2022/03/13 08:16:53;;;;;;;1.98;1.05;;;;;;;;;;5001184;28;20190;-82
2022/03/13 08:19:19;;;;;;;1.30;1.20;;;;;;;;;;5002319;28;20233;-82
2022/03/13 08:21:45;;;;;;;1.10;0.80;;;;;;;;;;5019236;28;20237;-83
2022/03/13 08:24:13;;;;;;;1.20;1.00;;;;;;;;;;5016794;28;20281;-83
2022/03/13 08:26:40;;;;;;;1.85;1.75;;;;;;;;;;5000453;28;20237;-83
2022/03/13 08:29:09;;;;;;;2.50;0.93;;;;;;;;;;5002333;28;20207;-81
2022/03/13 08:31:36;;;;;;;1.23;1.13;;;;;;;;;;5007218;28;20191;-81
2022/03/13 08:34:08;;;;;;;1.25;1.15;;;;;;;;;;5015987;28;20195;-79
2022/03/13 08:36:46;;;;;;;1.10;1.00;;;;;;;;;;5012740;28;20184;-79
2022/03/13 08:39:12;;;;;;;1.55;1.00;;;;;;;;;;5016546;28;20229;-80
2022/03/13 08:41:38;;;;;;;1.20;1.03;;;;;;;;;;5018066;28;20195;-80
2022/03/13 08:44:04;;;;;;;1.20;1.10;;;;;;;;;;5012614;28;20716;-81
2022/03/13 08:46:30;;;;;;;1.23;1.00;;;;;;;;;;5016372;28;20218;-80
2022/03/13 08:48:56;;;;;;;0.90;0.80;;;;;;;;;;4990668;28;20211;-81
2022/03/13 08:51:23;;;;;;;1.58;1.20;;;;;;;;;;5001937;28;20183;-81
2022/03/13 08:53:50;;;;;;;0.93;0.93;;;;;;;;;;5001348;28;20278;-80
2022/03/13 08:56:16;;;;;;;1.55;0.95;;;;;;;;;;5017409;28;20183;-81
2022/03/13 08:58:42;;;;;;;0.90;0.90;;;;;;;;;;5002758;28;20183;-80
2022/03/13 09:01:09;;;;;;;1.67;1.55;;;;;;;;;;5015891;28;20179;-80
2022/03/13 09:03:36;;;;;;;1.17;1.00;;;;;;;;;;5017421;28;20191;-80
2022/03/13 09:06:02;;;;;;;1.23;1.13;;;;;;;;;;5012712;28;20207;-80
2022/03/13 09:08:28;;;;;;;1.10;0.70;;;;;;;;;;5016218;28;20186;-81
2022/03/13 09:10:54;;;;;;;1.20;1.10;;;;;;;;;;5002357;28;20186;-80
2022/03/13 09:13:20;;;;;;;1.65;0.77;;;;;;;;;;5018478;28;20449;-81
2022/03/13 09:15:49;;;;;;;1.00;0.90;;;;;;;;;;4991115;28;20207;-81
2022/03/13 09:18:15;;;;;;;1.20;1.10;;;;;;;;;;5003079;28;20191;-81
2022/03/13 09:20:41;;;;;;;1.75;1.10;;;;;;;;;;5014395;28;20337;-79
2022/03/13 09:23:07;;;;;;;0.80;0.80;;;;;;;;;;5020792;28;20187;-80
2022/03/13 09:25:34;;;;;;;1.85;1.05;;;;;;;;;;5021831;28;20592;-79
2022/03/13 09:28:00;;;;;;;1.85;1.00;;;;;;;;;;5007401;28;20168;-84
2022/03/13 09:30:27;;;;;;;1.10;0.90;;;;;;;;;;5004860;28;20179;-80
2022/03/13 09:32:53;;;;;;;0.95;0.82;;;;;;;;;;5005282;28;20566;-81
2022/03/13 09:35:19;;;;;;;1.00;0.80;;;;;;;;;;5004575;28;20190;-80
2022/03/13 09:37:45;;;;;;;1.10;1.00;;;;;;;;;;5021351;28;20296;-81
2022/03/13 09:40:12;;;;;;;1.55;1.30;;;;;;;;;;5008381;28;20257;-81
2022/03/13 09:42:38;;;;;;;2.63;1.45;;;;;;;;;;5017113;28;20206;-81
2022/03/13 09:45:05;;;;;;;1.77;1.67;;;;;;;;;;5017887;28;20239;-80
2022/03/13 09:47:31;;;;;;;1.95;1.50;;;;;;;;;;4996412;28;20210;-80
2022/03/13 09:49:57;;;;;;;1.25;1.15;;;;;;;;;;5005937;28;20187;-80
2022/03/13 09:52:23;;;;;;;1.30;1.20;;;;;;;;;;5005997;28;20179;-80
2022/03/13 09:54:49;;;;;;;1.50;1.38;;;;;;;;;;5019953;28;20342;-80
2022/03/13 09:57:17;;;;;;;1.70;1.60;;;;;;;;;;5018098;28;20211;-80
2022/03/13 09:59:45;;;;;;;1.70;1.60;;;;;;;;;;5006131;28;20182;-81
2022/03/13 10:02:12;;;;;;;2.40;2.20;;;;;;;;;;5016620;28;20187;-80
2022/03/13 10:04:37;;;;;;;2.08;1.98;;;;;;;;;;5020460;28;20195;-81
2022/03/13 10:07:07;;;;;;;1.47;1.33;;;;;;;;;;5007464;28;20186;-80
2022/03/13 10:09:34;;;;;;;1.52;1.42;;;;;;;;;;4995325;28;20466;-80
2022/03/13 10:12:16;;;;;;;1.30;1.20;;;;;;;;;;4999601;28;20183;-80
2022/03/13 10:15:01;;;;;;;1.17;1.08;;;;;;;;;;5000423;28;20187;-80
2022/03/13 10:17:28;;;;;;;1.42;1.17;;;;;;;;;;4999276;28;20335;-80
2022/03/13 10:19:54;;;;;;;2.67;2.13;;;;;;;;;;5003177;28;20277;-81
2022/03/13 10:22:28;;;;;;;2.35;1.67;;;;;;;;;;5007230;28;20278;-81
2022/03/13 10:24:54;;;;;;;1.90;1.50;;;;;;;;;;4992929;28;20741;-81
2022/03/13 10:27:20;;;;;;;2.20;2.07;;;;;;;;;;5002170;28;20189;-80
2022/03/13 10:29:47;;;;;;;3.30;2.90;;;;;;;;;;5015801;28;20438;-80
2022/03/13 10:32:14;;;;;;;2.72;2.53;;;;;;;;;;5006296;28;20266;-81
2022/03/13 10:34:40;;;;;;;1.60;1.50;;;;;;;;;;5019781;28;20218;-80
2022/03/13 10:37:06;;;;;;;2.10;1.90;;;;;;;;;;5021836;28;20175;-80
2022/03/13 10:39:34;;;;;;;2.40;2.20;;;;;;;;;;5016596;28;20469;-80
2022/03/13 10:42:03;;;;;;;1.90;1.80;;;;;;;;;;5017043;28;20198;-80
2022/03/13 10:44:34;;;;;;;2.00;1.67;;;;;;;;;;4994293;28;20198;-80
2022/03/13 10:47:03;;;;;;;3.42;2.80;;;;;;;;;;5017034;28;20297;-80
2022/03/13 10:49:44;;;;;;;2.05;1.85;;;;;;;;;;5003606;28;20584;-80
2022/03/13 10:52:25;;;;;;;2.95;2.05;;;;;;;;;;5021497;28;20203;-80
2022/03/13 10:54:51;;;;;;;2.05;1.88;;;;;;;;;;5021222;28;20207;-80
2022/03/13 10:57:19;;;;;;;1.95;1.70;;;;;;;;;;4997133;28;20187;-80
2022/03/13 10:59:45;;;;;;;1.83;1.73;;;;;;;;;;4998343;28;20188;-80
2022/03/13 11:02:18;;;;;;;1.60;1.50;;;;;;;;;;5015694;28;20636;-80
2022/03/13 11:04:52;;;;;;;2.42;1.83;;;;;;;;;;5004495;28;20194;-80
2022/03/13 11:07:19;;;;;;;1.95;1.83;;;;;;;;;;5000631;28;20167;-80
2022/03/13 11:09:45;;;;;;;1.90;1.70;;;;;;;;;;5017316;28;20622;-80
2022/03/13 11:12:19;;;;;;;2.30;2.10;;;;;;;;;;5008289;28;20214;-80
2022/03/13 11:14:49;;;;;;;2.15;2.03;;;;;;;;;;4996411;28;20190;-80
2022/03/13 11:17:16;;;;;;;3.40;2.58;;;;;;;;;;5018423;28;20179;-80
2022/03/13 11:19:43;;;;;;;2.40;2.20;;;;;;;;;;5003234;28;20188;-80
2022/03/13 11:22:09;;;;;;;2.38;2.17;;;;;;;;;;5021053;28;20185;-79
2022/03/13 11:24:36;;;;;;;2.85;2.13;;;;;;;;;;5015378;28;20996;-80
2022/03/13 11:27:02;;;;;;;2.05;1.63;;;;;;;;;;5016143;28;20199;-79
2022/03/13 11:29:45;;;;;;;2.13;1.92;;;;;;;;;;4992231;28;20187;-79
2022/03/13 11:32:29;;;;;;;2.03;1.60;;;;;;;;;;4990777;28;20190;-81
2022/03/13 11:35:19;;;;;;;2.28;1.75;;;;;;;;;;5002228;28;20187;-79
2022/03/13 11:37:46;;;;;;;2.25;1.90;;;;;;;;;;5019502;28;20521;-79
2022/03/13 11:40:13;;;;;;;2.40;2.20;;;;;;;;;;5014724;28;20291;-79
2022/03/13 11:42:47;;;;;;;2.30;2.10;;;;;;;;;;4991455;28;20195;-79
2022/03/13 11:45:36;;;;;;;2.08;1.85;;;;;;;;;;4997153;28;20269;-79
2022/03/13 11:48:09;;;;;;;2.17;1.98;;;;;;;;;;4988938;28;20188;-79
2022/03/13 11:50:51;;;;;;;3.08;2.05;;;;;;;;;;4991861;28;20175;-79
2022/03/13 11:53:19;;;;;;;2.75;2.10;;;;;;;;;;4999914;28;20704;-79
2022/03/13 11:56:00;;;;;;;1.50;1.40;;;;;;;;;;5002830;28;20181;-79
2022/03/13 11:58:40;;;;;;;1.98;1.70;;;;;;;;;;5017050;28;20210;-79
2022/03/13 12:01:07;;;;;;;1.40;1.20;;;;;;;;;;4998553;28;20559;-79
2022/03/13 12:03:33;;;;;;;1.50;1.40;;;;;;;;;;5003004;28;20186;-79
2022/03/13 12:05:59;;;;;;;1.95;1.50;;;;;;;;;;5004159;28;20669;-79
2022/03/13 12:08:45;;;;;;;1.30;1.10;;;;;;;;;;5002522;28;20186;-80
2022/03/13 12:11:34;;;;;;;1.50;1.17;;;;;;;;;;5014282;28;20183;-79
2022/03/13 12:14:01;;;;;;;1.50;1.40;;;;;;;;;;5002327;28;20189;-79
2022/03/13 12:16:27;;;;;;;1.25;1.00;;;;;;;;;;5017053;28;20198;-78
2022/03/13 12:18:59;;;;;;;1.15;1.05;;;;;;;;;;5018660;28;20222;-79
2022/03/13 12:21:26;;;;;;;2.08;1.98;;;;;;;;;;5003820;28;20249;-79
2022/03/13 12:23:57;;;;;;;1.77;1.67;;;;;;;;;;5003819;28;20217;-79
2022/03/13 12:26:38;;;;;;;1.40;1.30;;;;;;;;;;5008335;28;20226;-79
2022/03/13 12:29:04;;;;;;;1.88;1.63;;;;;;;;;;4991655;28;20179;-79
2022/03/13 12:31:38;;;;;;;2.22;1.83;;;;;;;;;;5002043;28;20174;-79
2022/03/13 12:34:04;;;;;;;1.85;1.70;;;;;;;;;;5019549;28;20181;-79
2022/03/13 12:36:34;;;;;;;2.28;1.55;;;;;;;;;;5011928;28;20193;-79
2022/03/13 12:39:00;;;;;;;1.58;1.48;;;;;;;;;;4996536;28;20211;-79
2022/03/13 12:41:29;;;;;;;1.77;1.67;;;;;;;;;;5000979;28;20194;-78
2022/03/13 12:43:59;;;;;;;1.70;1.60;;;;;;;;;;5003114;28;20399;-79
2022/03/13 12:46:26;;;;;;;2.03;1.88;;;;;;;;;;5002418;28;20561;-79
2022/03/13 12:48:55;;;;;;;2.95;2.70;;;;;;;;;;5018747;28;20179;-79
2022/03/13 12:51:41;;;;;;;2.35;2.10;;;;;;;;;;4995546;28;20211;-79
2022/03/13 12:54:14;;;;;;;2.42;1.90;;;;;;;;;;4999738;28;20202;-79
2022/03/13 12:56:52;;;;;;;1.50;1.40;;;;;;;;;;5002900;28;20186;-79
2022/03/13 12:59:48;;;;;;;1.77;1.67;;;;;;;;;;4998162;28;20191;-79
2022/03/13 13:02:21;;;;;;;1.77;1.60;;;;;;;;;;5003089;28;20190;-79
2022/03/13 13:04:47;;;;;;;3.38;1.33;;;;;;;;;;5002419;28;20198;-79
2022/03/13 13:07:14;;;;;;;1.67;1.40;;;;;;;;;;5019522;28;20225;-79
2022/03/13 13:09:42;;;;;;;2.08;1.88;;;;;;;;;;5004763;28;20171;-79
2022/03/13 13:12:09;;;;;;;1.75;1.55;;;;;;;;;;4997125;28;20191;-79
2022/03/13 13:14:35;;;;;;;2.17;1.98;;;;;;;;;;5000529;28;20182;-79
2022/03/13 13:17:06;;;;;;;1.85;1.75;;;;;;;;;;5000886;28;20194;-82
2022/03/13 13:19:36;;;;;;;2.30;2.08;;;;;;;;;;5001752;28;20203;-78
2022/03/13 13:22:03;;;;;;;1.70;1.60;;;;;;;;;;5014504;28;20187;-78
2022/03/13 13:24:36;;;;;;;1.85;1.63;;;;;;;;;;5008770;28;20193;-78
2022/03/13 13:27:04;;;;;;;1.52;1.42;;;;;;;;;;4991630;28;20246;-78
2022/03/13 13:29:31;;;;;;;3.08;1.95;;;;;;;;;;4991633;28;20651;-78
2022/03/13 13:32:16;;;;;;;2.00;1.70;;;;;;;;;;5002816;28;20183;-79
2022/03/13 13:34:44;;;;;;;1.67;1.58;;;;;;;;;;5017614;28;20263;-78
2022/03/13 13:37:10;;;;;;;2.25;1.65;;;;;;;;;;5003428;28;20712;-79
2022/03/13 13:39:36;;;;;;;2.05;1.85;;;;;;;;;;5000107;28;20238;-79
2022/03/13 13:42:02;;;;;;;1.95;1.75;;;;;;;;;;4999732;28;20258;-79
2022/03/13 13:44:31;;;;;;;2.08;1.90;;;;;;;;;;4999948;28;20187;-79
2022/03/13 13:47:04;;;;;;;2.38;2.17;;;;;;;;;;4986552;28;20635;-79
2022/03/13 13:49:30;;;;;;;2.53;2.33;;;;;;;;;;5017593;28;20648;-78
2022/03/13 13:52:09;;;;;;;2.20;2.00;;;;;;;;;;5017723;28;20183;-79
2022/03/13 13:54:36;;;;;;;2.60;2.20;;;;;;;;;;4994969;28;20194;-78
2022/03/13 13:57:02;;;;;;;1.90;1.80;;;;;;;;;;5015294;28;20187;-79
2022/03/13 13:59:30;;;;;;;2.40;2.20;;;;;;;;;;5016322;28;20334;-80
2022/03/13 14:02:03;;;;;;;2.60;2.08;;;;;;;;;;5000918;28;20187;-79
2022/03/13 14:04:30;;;;;;;2.47;1.98;;;;;;;;;;5006365;28;20191;-79
2022/03/13 14:06:56;;;;;;;3.78;2.33;;;;;;;;;;5004439;28;20203;-79
2022/03/13 14:09:23;;;;;;;2.90;2.60;;;;;;;;;;5003407;28;20191;-79
2022/03/13 14:11:49;;;;;;;2.80;2.50;;;;;;;;;;4999364;28;20194;-79
2022/03/13 14:14:16;;;;;;;2.42;2.22;;;;;;;;;;4998856;28;20712;-79
2022/03/13 14:16:43;;;;;;;2.75;2.55;;;;;;;;;;5020409;28;20201;-79
2022/03/13 14:19:09;;;;;;;2.55;2.17;;;;;;;;;;5018397;28;20186;-79
2022/03/13 14:21:36;;;;;;;3.70;2.78;;;;;;;;;;5017785;28;20291;-79
2022/03/13 14:24:03;;;;;;;2.40;2.20;;;;;;;;;;5009712;28;20661;-79
2022/03/13 14:26:29;;;;;;;1.83;1.70;;;;;;;;;;4993739;28;20199;-80
2022/03/13 14:28:55;;;;;;;1.90;1.80;;;;;;;;;;5002854;28;20190;-79
2022/03/13 14:31:21;;;;;;;2.65;2.45;;;;;;;;;;5004892;28;20423;-79
2022/03/13 14:33:47;;;;;;;2.55;1.73;;;;;;;;;;5021930;28;20183;-79
2022/03/13 14:36:13;;;;;;;2.13;1.92;;;;;;;;;;5005318;28;20197;-79
2022/03/13 14:38:44;;;;;;;1.93;1.83;;;;;;;;;;5005245;28;20290;-79
2022/03/13 14:41:10;;;;;;;2.00;1.90;;;;;;;;;;5005085;28;20429;-79
2022/03/13 14:43:37;;;;;;;1.70;1.60;;;;;;;;;;5019797;28;20199;-79
2022/03/13 14:46:03;;;;;;;1.80;1.60;;;;;;;;;;4987091;28;20467;-79
2022/03/13 14:48:29;;;;;;;1.85;1.75;;;;;;;;;;5001799;28;20250;-79